Time;durP1;ratioP1;P1;durP2;ratioP2;P2;SDS_P1;SDS_P2;PMS_P1;PMS_P2;Temp;Humidity;BMP_temperature;BMP_pressure;BME280_temperature;BME280_humidity;BME280_pressure;Samples;Min_cycle;Max_cycle;Signal;HPM_P1;HPM_P2
2021/10/25 00:00:24;;;;;;;16.38;10.45;;;;;;;8.91;96.08;101922.59;5015363;28;20084;-71
2021/10/25 00:02:49;;;;;;;15.18;10.60;;;;;;;8.96;96.02;101925.41;5008279;28;20022;-70
2021/10/25 00:05:14;;;;;;;15.50;10.73;;;;;;;8.99;96.13;101917.63;5015505;28;20040;-71
2021/10/25 00:07:40;;;;;;;20.63;10.63;;;;;;;9.01;96.08;101913.34;5015546;28;20033;-71
2021/10/25 00:10:07;;;;;;;16.60;10.38;;;;;;;9.03;96.17;101914.28;5013663;28;20080;-72
2021/10/25 00:12:32;;;;;;;16.10;10.65;;;;;;;9.07;96.05;101912.69;5011720;28;20390;-71
2021/10/25 00:14:58;;;;;;;20.30;9.50;;;;;;;9.09;95.53;101906.69;5016003;28;20037;-70
2021/10/25 00:17:24;;;;;;;17.48;9.57;;;;;;;9.11;95.23;101902.41;5015041;28;20037;-71
2021/10/25 00:19:50;;;;;;;14.05;9.57;;;;;;;9.14;95.53;101898.09;5014031;28;20056;-70
2021/10/25 00:22:16;;;;;;;16.45;9.45;;;;;;;9.17;95.26;101903.44;5015100;28;20108;-71
2021/10/25 00:24:42;;;;;;;16.10;9.90;;;;;;;9.17;95.09;101898.19;5014080;28;20037;-71
2021/10/25 00:27:08;;;;;;;14.52;9.73;;;;;;;9.18;95.09;101894.75;5013314;28;20057;-70
2021/10/25 00:29:33;;;;;;;17.27;9.60;;;;;;;9.19;95.18;101893.91;5013553;28;20375;-71
2021/10/25 00:31:58;;;;;;;21.25;9.68;;;;;;;9.22;95.25;101891.41;5012962;28;20072;-71
2021/10/25 00:34:24;;;;;;;19.17;10.40;;;;;;;9.25;94.80;101886.25;5015130;28;20045;-70
2021/10/25 00:36:49;;;;;;;19.45;10.50;;;;;;;9.25;95.21;101897.69;5015239;28;20040;-71
2021/10/25 00:39:15;;;;;;;23.17;10.27;;;;;;;9.25;94.76;101886.25;5014915;28;20026;-70
2021/10/25 00:41:40;;;;;;;16.42;9.82;;;;;;;9.26;95.11;101888.97;5012178;28;20360;-70
2021/10/25 00:44:06;;;;;;;14.50;9.90;;;;;;;9.26;94.61;101882.81;5014737;28;20092;-71
2021/10/25 00:46:32;;;;;;;18.27;9.63;;;;;;;9.28;94.72;101887.28;5014968;28;20037;-71
2021/10/25 00:48:59;;;;;;;13.07;8.88;;;;;;;9.29;94.97;101880.28;5012702;28;20041;-71
2021/10/25 00:51:25;;;;;;;15.77;9.75;;;;;;;9.29;94.55;101877.66;5014044;28;20461;-71
2021/10/25 00:53:50;;;;;;;21.63;9.48;;;;;;;9.33;94.46;101882.19;5026741;28;20025;-71
2021/10/25 00:56:16;;;;;;;12.45;9.50;;;;;;;9.32;94.59;101883.06;5018255;28;20045;-71
2021/10/25 00:58:42;;;;;;;19.35;10.23;;;;;;;9.35;94.43;101877.03;5014940;28;20025;-70
2021/10/25 01:01:08;;;;;;;16.05;9.80;;;;;;;9.34;94.34;101881.38;5012538;28;20190;-72
2021/10/25 01:03:35;;;;;;;16.38;8.80;;;;;;;9.35;94.25;101888.41;5013947;28;20461;-72
2021/10/25 01:06:01;;;;;;;16.85;9.25;;;;;;;9.36;94.21;101884.97;5014327;28;20030;-71
2021/10/25 01:08:30;;;;;;;12.32;8.65;;;;;;;9.37;94.30;101878.88;5013571;28;20026;-72
2021/10/25 01:10:57;;;;;;;14.27;9.60;;;;;;;9.38;93.75;101877.13;5005743;28;20112;-72
2021/10/25 01:13:23;;;;;;;13.43;9.48;;;;;;;9.39;93.51;101885.06;5013519;28;20432;-70
2021/10/25 01:15:49;;;;;;;18.98;10.13;;;;;;;9.40;93.61;101875.44;5014381;28;20030;-70
2021/10/25 01:18:14;;;;;;;17.48;9.63;;;;;;;9.44;92.96;101890.50;5012841;28;20478;-72
2021/10/25 01:20:40;;;;;;;19.05;10.45;;;;;;;9.43;92.73;101876.47;5014339;28;20029;-70
2021/10/25 01:23:07;;;;;;;16.55;9.48;;;;;;;9.49;92.81;101882.81;5013359;28;20072;-71
2021/10/25 01:25:33;;;;;;;14.32;10.30;;;;;;;9.48;92.71;101878.38;5014080;28;20053;-71
2021/10/25 01:27:59;;;;;;;15.27;9.45;;;;;;;9.53;92.54;101874.19;5013845;28;20485;-71
2021/10/25 01:30:25;;;;;;;10.32;8.68;;;;;;;9.55;92.13;101872.50;5013918;28;20466;-71
2021/10/25 01:32:51;;;;;;;13.60;9.15;;;;;;;9.54;92.27;101878.63;5013704;28;20026;-71
2021/10/25 01:35:18;;;;;;;16.23;10.05;;;;;;;9.53;92.43;101867.19;5011971;28;20026;-71
2021/10/25 01:37:44;;;;;;;13.95;9.48;;;;;;;9.51;92.60;101870.59;5013135;28;20037;-72
2021/10/25 01:40:11;;;;;;;18.70;9.48;;;;;;;9.53;92.59;101868.94;5013828;28;20029;-71
2021/10/25 01:42:37;;;;;;;18.30;9.25;;;;;;;9.54;92.53;101869.00;5012069;28;20083;-71
2021/10/25 01:45:04;;;;;;;14.23;9.93;;;;;;;9.53;92.58;101863.69;5013792;28;20466;-72
2021/10/25 01:47:29;;;;;;;15.38;9.30;;;;;;;9.54;92.44;101868.09;5012389;28;20560;-71
2021/10/25 01:49:55;;;;;;;17.08;10.63;;;;;;;9.51;92.86;101866.25;5016650;28;20037;-72
2021/10/25 01:52:20;;;;;;;19.27;10.27;;;;;;;9.55;92.60;101859.38;5017126;28;20030;-71
2021/10/25 01:54:46;;;;;;;12.73;9.52;;;;;;;9.58;92.35;101859.50;5015311;28;20545;-72
2021/10/25 01:57:11;;;;;;;16.95;10.00;;;;;;;9.55;92.28;101854.09;5013548;28;20099;-71
2021/10/25 01:59:37;;;;;;;15.13;9.95;;;;;;;9.53;92.74;101856.69;5013133;28;20160;-72
2021/10/25 02:02:02;;;;;;;16.10;9.18;;;;;;;9.54;93.07;101863.75;5011812;28;20148;-71
2021/10/25 02:04:28;;;;;;;14.20;8.80;;;;;;;9.55;93.06;101854.09;5012585;28;20034;-71
2021/10/25 02:06:54;;;;;;;12.25;9.10;;;;;;;9.56;93.12;101854.19;5012759;28;20041;-70
2021/10/25 02:09:22;;;;;;;16.13;9.10;;;;;;;9.60;92.90;101852.56;5013337;28;20014;-71
2021/10/25 02:11:48;;;;;;;14.07;9.27;;;;;;;9.59;92.46;101850.75;5013706;28;20029;-72
2021/10/25 02:14:15;;;;;;;15.52;9.75;;;;;;;9.60;92.97;101849.94;5013047;28;20032;-72
2021/10/25 02:16:41;;;;;;;13.63;9.10;;;;;;;9.61;92.72;101847.34;5011563;28;20080;-71
2021/10/25 02:19:07;;;;;;;16.25;9.27;;;;;;;9.55;93.29;101844.50;5013066;28;20061;-71
2021/10/25 02:21:32;;;;;;;20.98;9.43;;;;;;;9.60;92.74;101844.66;5013392;28;20061;-71
2021/10/25 02:23:58;;;;;;;14.75;9.63;;;;;;;9.60;92.98;101849.94;5013491;28;20045;-71
2021/10/25 02:26:23;;;;;;;13.13;8.65;;;;;;;9.65;93.05;101843.09;5010906;28;20096;-71
2021/10/25 02:28:48;;;;;;;14.38;9.75;;;;;;;9.66;93.08;101844.00;5012903;28;20034;-71
2021/10/25 02:31:14;;;;;;;12.95;8.65;;;;;;;9.69;93.18;101836.25;5012677;28;20024;-71
2021/10/25 02:33:40;;;;;;;16.08;8.43;;;;;;;9.69;93.07;101825.72;5013227;28;20041;-71
2021/10/25 02:36:07;;;;;;;16.85;9.48;;;;;;;9.70;93.35;101833.66;5012533;28;20030;-70
2021/10/25 02:38:34;;;;;;;14.40;9.38;;;;;;;9.69;93.31;101831.88;5011301;28;20120;-70
2021/10/25 02:41:00;;;;;;;13.13;8.55;;;;;;;9.72;93.16;101837.22;5012499;28;20347;-70
2021/10/25 02:43:26;;;;;;;12.00;8.52;;;;;;;9.72;93.30;101837.22;5013169;28;20104;-71
2021/10/25 02:45:51;;;;;;;12.32;8.70;;;;;;;9.78;93.24;101832.22;5013034;28;20100;-71
2021/10/25 02:48:16;;;;;;;13.18;8.15;;;;;;;9.76;93.33;101828.59;5012703;28;20022;-71
2021/10/25 02:50:43;;;;;;;20.17;9.85;;;;;;;9.80;93.42;101824.38;5010821;28;20058;-71
2021/10/25 02:53:09;;;;;;;13.35;8.68;;;;;;;9.78;93.92;101833.94;5017456;28;20028;-71
2021/10/25 02:55:35;;;;;;;17.92;9.45;;;;;;;9.77;93.94;101824.28;5022676;28;20029;-71
2021/10/25 02:58:02;;;;;;;14.27;9.15;;;;;;;9.77;94.53;101830.41;5016931;28;20030;-71
2021/10/25 03:00:27;;;;;;;14.55;8.90;;;;;;;9.77;95.12;101827.78;5011326;28;20033;-71
2021/10/25 03:02:53;;;;;;;14.75;9.80;;;;;;;9.78;95.92;101833.94;5011360;28;20037;-71
2021/10/25 03:05:19;;;;;;;17.40;10.18;;;;;;;9.77;96.86;101830.41;5011874;28;20041;-71
2021/10/25 03:07:44;;;;;;;17.67;9.82;;;;;;;9.72;97.60;101833.72;5012771;28;20470;-73
2021/10/25 03:10:09;;;;;;;18.98;10.50;;;;;;;9.65;99.31;101836.97;5013040;28;20034;-72
2021/10/25 03:12:35;;;;;;;23.90;11.50;;;;;;;9.63;99.88;101829.03;5015219;28;20107;-70
2021/10/25 03:15:00;;;;;;;17.30;11.07;;;;;;;9.60;100.00;101828.91;5016305;28;20053;-72
2021/10/25 03:17:26;;;;;;;21.00;12.45;;;;;;;9.56;100.00;101824.38;5015485;28;20099;-70
2021/10/25 03:19:51;;;;;;;20.67;11.63;;;;;;;9.55;100.00;101818.25;5014692;28;20025;-70
2021/10/25 03:22:17;;;;;;;17.92;11.60;;;;;;;9.54;100.00;101826.06;5015300;28;20033;-71
2021/10/25 03:24:43;;;;;;;22.25;11.70;;;;;;;9.53;100.00;101822.53;5016601;28;20049;-70
2021/10/25 03:27:09;;;;;;;15.77;10.82;;;;;;;9.51;100.00;101823.31;5015998;28;20509;-70
2021/10/25 03:29:35;;;;;;;19.40;12.13;;;;;;;9.50;100.00;101824.16;5015798;28;20049;-71
2021/10/25 03:32:01;;;;;;;16.65;11.63;;;;;;;9.54;100.00;101831.31;5016097;28;20037;-70
2021/10/25 03:34:28;;;;;;;15.70;10.68;;;;;;;9.54;100.00;101826.94;5027947;28;20083;-70
2021/10/25 03:36:54;;;;;;;22.25;12.43;;;;;;;9.54;100.00;101820.81;5016319;28;20040;-71
2021/10/25 03:39:23;;;;;;;23.77;12.63;;;;;;;9.52;100.00;101819.84;5014799;28;20493;-71
2021/10/25 03:41:50;;;;;;;21.35;12.30;;;;;;;9.54;100.00;101820.81;5016261;28;20462;-71
2021/10/25 03:44:24;;;;;;;19.67;12.55;;;;;;;9.55;100.00;101817.31;5015254;28;20032;-71
2021/10/25 03:46:55;;;;;;;;;;;;;;;9.55;100.00;101822.56;5016736;28;20371;-71
2021/10/25 03:52:04;;;;;;;20.55;12.80;;;;;;;9.55;100.00;101818.25;5016719;28;20045;-71
2021/10/25 03:57:28;;;;;;;22.60;13.35;;;;;;;9.59;100.00;101806.09;5015573;28;20494;-71
2021/10/25 03:59:56;;;;;;;21.17;13.23;;;;;;;9.62;100.00;101808.84;5015260;28;20142;-71
2021/10/25 04:27:42;;;;;;;28.42;15.80;;;;;;;9.56;100.00;101813.88;5015219;28;20180;-70
2021/10/25 04:30:08;;;;;;;30.65;16.75;;;;;;;9.57;100.00;101813.03;5014236;28;20052;-71
2021/10/25 04:32:34;;;;;;;24.85;16.38;;;;;;;9.60;100.00;101810.50;5014845;28;20034;-71
2021/10/25 04:34:59;;;;;;;25.48;16.13;;;;;;;9.60;100.00;101807.88;5014846;28;20104;-71
2021/10/25 04:37:25;;;;;;;32.15;16.25;;;;;;;9.58;100.00;101817.47;5015165;28;20032;-71
2021/10/25 04:39:50;;;;;;;29.77;17.98;;;;;;;9.57;100.00;101815.66;5013514;28;20044;-71
2021/10/25 04:42:19;;;;;;;30.13;18.25;;;;;;;9.62;100.00;101819.34;5014073;28;20033;-71
2021/10/25 04:44:46;;;;;;;32.97;18.33;;;;;;;9.66;100.00;101810.75;5010642;28;20398;-71
2021/10/25 04:47:11;;;;;;;27.67;17.73;;;;;;;9.66;100.00;101810.75;5014165;28;20385;-71
2021/10/25 04:49:36;;;;;;;31.33;19.55;;;;;;;9.67;100.00;101802.03;5013848;28;20018;-71
2021/10/25 04:52:03;;;;;;;37.65;21.17;;;;;;;9.70;100.00;101806.47;5013333;28;20922;-71
2021/10/25 04:54:31;;;;;;;32.20;19.25;;;;;;;9.69;100.00;101805.59;5014135;28;20038;-71
2021/10/25 04:57:00;;;;;;;35.35;22.48;;;;;;;9.68;100.00;101803.78;5012264;28;20025;-72
2021/10/25 04:59:25;;;;;;;32.88;21.05;;;;;;;9.70;100.00;101799.50;5011756;28;20026;-72
2021/10/25 05:01:51;;;;;;;38.42;22.65;;;;;;;9.70;100.00;101801.22;5011335;28;20033;-71
2021/10/25 05:04:16;;;;;;;35.88;22.48;;;;;;;9.71;100.00;101809.19;5012965;28;20116;-71
2021/10/25 05:06:41;;;;;;;40.40;25.50;;;;;;;9.72;100.00;101795.16;5010253;28;20032;-70
2021/10/25 05:09:07;;;;;;;37.47;24.38;;;;;;;9.74;100.00;101796.13;5012012;28;20910;-71
2021/10/25 05:11:33;;;;;;;39.95;24.70;;;;;;;9.76;100.00;101797.06;5011289;28;20445;-71
2021/10/25 05:13:58;;;;;;;41.97;24.95;;;;;;;9.81;100.00;101789.38;5013068;28;20378;-71
2021/10/25 05:16:23;;;;;;;43.60;25.80;;;;;;;9.78;100.00;101800.66;5010218;28;20117;-72
2021/10/25 05:18:49;;;;;;;41.22;26.13;;;;;;;9.82;100.00;101803.38;5017636;28;20456;-70
2021/10/25 05:21:15;;;;;;;50.35;26.00;;;;;;;9.84;100.00;101804.34;5013745;28;20371;-73
2021/10/25 05:23:40;;;;;;;51.58;27.63;;;;;;;9.82;100.00;101796.41;5013466;28;20116;-73
2021/10/25 05:26:06;;;;;;;44.70;26.88;;;;;;;9.83;100.00;101802.56;5010946;28;20137;-69
2021/10/25 05:28:32;;;;;;;48.13;27.13;;;;;;;9.87;100.00;101793.94;5011692;28;20029;-69
2021/10/25 05:30:57;;;;;;;46.67;28.65;;;;;;;9.88;100.00;101790.47;5012805;28;20506;-71
2021/10/25 05:33:22;;;;;;;50.20;28.45;;;;;;;9.89;100.00;101786.97;5012440;28;20038;-69
2021/10/25 05:35:48;;;;;;;44.35;25.77;;;;;;;9.87;100.00;101786.06;5011655;28;20033;-69
2021/10/25 05:38:13;;;;;;;47.97;25.42;;;;;;;9.86;100.00;101784.25;5008514;28;20038;-69
2021/10/25 05:40:39;;;;;;;41.90;27.00;;;;;;;9.86;100.00;101777.28;5012567;28;20025;-69
2021/10/25 05:43:06;;;;;;;40.53;25.77;;;;;;;9.88;100.00;101777.31;5012328;28;20029;-71
2021/10/25 05:45:32;;;;;;;53.08;26.42;;;;;;;9.86;100.00;101781.63;5017046;28;20105;-71
2021/10/25 05:47:58;;;;;;;39.65;26.52;;;;;;;9.83;100.00;101771.91;5007680;28;20533;-69
2021/10/25 05:50:23;;;;;;;37.13;23.83;;;;;;;9.81;100.00;101773.59;5010557;28;20113;-69
2021/10/25 05:52:49;;;;;;;36.42;23.27;;;;;;;9.83;100.00;101776.28;5015807;28;20036;-69
2021/10/25 05:55:20;;;;;;;35.75;24.13;;;;;;;9.82;100.00;101779.72;5013950;28;20030;-69
2021/10/25 05:57:46;;;;;;;36.80;22.10;;;;;;;9.78;100.00;101774.38;5011356;28;20068;-69
2021/10/25 06:00:13;;;;;;;33.45;23.13;;;;;;;9.81;100.00;101777.94;5009407;28;20061;-70
2021/10/25 06:02:38;;;;;;;32.95;22.45;;;;;;;9.78;100.00;101770.88;5006983;28;20112;-69
2021/10/25 06:05:06;;;;;;;32.58;22.30;;;;;;;9.78;100.00;101770.88;5008130;28;20474;-69
2021/10/25 06:07:32;;;;;;;31.40;20.58;;;;;;;9.76;100.00;101768.16;5005882;28;20389;-69
2021/10/25 06:09:57;;;;;;;34.20;21.05;;;;;;;9.74;100.00;101767.22;5009131;28;20031;-68
2021/10/25 06:12:23;;;;;;;29.60;19.88;;;;;;;9.76;100.00;101772.53;5011288;28;20033;-69
2021/10/25 06:14:50;;;;;;;33.83;21.20;;;;;;;9.75;100.00;101773.38;5006285;28;20033;-70
2021/10/25 06:19:44;;;;;;;29.42;20.50;;;;;;;9.72;100.00;101771.53;5008927;28;20076;-68
2021/10/25 06:22:09;;;;;;;34.80;21.17;;;;;;;9.70;100.00;101775.84;5007659;28;20053;-69
2021/10/25 06:24:34;;;;;;;37.05;21.10;;;;;;;9.68;100.00;101777.50;5005320;28;20030;-70
2021/10/25 06:27:00;;;;;;;32.88;20.50;;;;;;;9.70;100.00;101774.94;5013005;28;20069;-68
2021/10/25 06:29:25;;;;;;;30.48;19.75;;;;;;;9.68;100.00;101774.88;5011788;28;20074;-69
2021/10/25 06:31:50;;;;;;;26.92;19.13;;;;;;;9.67;100.00;101770.50;5009297;28;20025;-68
2021/10/25 06:34:24;;;;;;;31.77;20.13;;;;;;;9.68;100.00;101772.25;5010676;28;20032;-69
2021/10/25 06:36:52;;;;;;;28.15;19.63;;;;;;;9.67;100.00;101775.75;5007820;28;20032;-69
2021/10/25 06:39:38;;;;;;;35.60;19.23;;;;;;;9.70;100.00;101781.09;5011029;28;20026;-69
2021/10/25 06:42:08;;;;;;;24.90;17.27;;;;;;;9.68;100.00;101781.88;5011588;28;20030;-68
2021/10/25 06:44:58;;;;;;;29.67;17.80;;;;;;;9.71;100.00;101772.38;5010295;28;20033;-75
2021/10/25 06:47:22;;;;;;;26.23;17.63;;;;;;;9.69;100.00;101779.31;5018235;28;20034;-77
2021/10/25 06:49:47;;;;;;;29.95;18.70;;;;;;;9.73;100.00;101785.56;5018643;28;20080;-76
2021/10/25 06:52:13;;;;;;;25.23;17.60;;;;;;;9.70;100.00;101774.94;5019067;28;20033;-73
2021/10/25 06:54:39;;;;;;;25.00;17.70;;;;;;;9.68;100.00;101785.41;5022747;28;20036;-75
2021/10/25 06:57:04;;;;;;;26.58;17.52;;;;;;;9.69;100.00;101779.31;5016323;28;20080;-75
2021/10/25 06:59:29;;;;;;;25.75;18.20;;;;;;;9.71;100.00;101781.97;5011684;28;20049;-76
2021/10/25 07:01:55;;;;;;;25.83;17.98;;;;;;;9.71;100.00;101781.97;5015775;28;20404;-76
2021/10/25 07:04:20;;;;;;;27.50;18.55;;;;;;;9.71;100.00;101776.72;5018528;28;20026;-75
2021/10/25 07:06:46;;;;;;;31.77;18.65;;;;;;;9.72;100.00;101784.66;5022085;28;20022;-76
2021/10/25 07:09:11;;;;;;;31.05;19.13;;;;;;;9.73;100.00;101791.72;5021925;28;20080;-76
2021/10/25 07:11:42;;;;;;;27.33;17.88;;;;;;;9.74;100.00;101790.88;5016408;28;20108;-76
2021/10/25 07:14:08;;;;;;;28.77;18.67;;;;;;;9.75;100.00;101792.69;5020084;28;20112;-75
2021/10/25 07:16:41;;;;;;;31.83;19.33;;;;;;;9.76;100.00;101794.44;5025845;28;20132;-75
2021/10/25 07:21:54;;;;;;;27.02;17.77;;;;;;;9.78;100.00;101799.78;5016149;28;20041;-76
2021/10/25 08:00:09;;;;;;;22.48;15.30;;;;;;;10.03;100.00;101816.41;5023104;28;20041;-75
2021/10/25 08:03:03;;;;;;;22.85;16.42;;;;;;;10.01;100.00;101816.34;5007692;28;20096;-75
2021/10/25 08:08:47;;;;;;;21.80;15.88;;;;;;;10.06;100.00;101814.75;5012960;28;20073;-75
2021/10/25 08:10:46;;;;;;;23.17;15.27;;;;;;;10.09;100.00;101814.88;5013579;28;20030;-75
2021/10/25 08:13:14;;;;;;;25.55;15.32;;;;;;;10.10;100.00;101814.00;5013289;28;20118;-78
2021/10/25 08:15:42;;;;;;;25.60;15.95;;;;;;;10.12;100.00;101817.59;5014596;28;20408;-81
2021/10/25 08:18:31;;;;;;;20.73;15.13;;;;;;;10.15;100.00;101818.53;5013452;28;20541;-74
2021/10/25 08:20:57;;;;;;;18.98;14.60;;;;;;;10.22;100.00;101818.81;5008700;28;20041;-77
2021/10/25 08:23:23;;;;;;;23.13;16.60;;;;;;;10.24;100.00;101818.84;5013177;28;20029;-77
2021/10/25 08:25:48;;;;;;;25.00;16.67;;;;;;;10.27;100.00;101821.59;5013508;28;20050;-77
2021/10/25 08:28:14;;;;;;;22.50;16.27;;;;;;;10.30;100.00;101817.31;5015099;28;20033;-76
2021/10/25 08:30:41;;;;;;;24.52;17.83;;;;;;;10.30;100.00;101826.97;5014687;28;20045;-76
2021/10/25 08:41:05;;;;;;;29.02;19.83;;;;;;;10.52;100.00;101806.66;5014536;28;20049;-77
2021/10/25 08:43:33;;;;;;;28.25;20.27;;;;;;;10.49;100.00;101811.81;5014278;28;20034;-76
2021/10/25 08:46:02;;;;;;;30.52;20.13;;;;;;;10.50;100.00;101810.97;5014713;28;20036;-76
2021/10/25 08:48:30;;;;;;;35.85;20.92;;;;;;;10.47;100.00;101814.38;5012795;28;20041;-77
2021/10/25 08:50:55;;;;;;;30.02;19.92;;;;;;;10.45;100.00;101814.34;5015997;28;20049;-77
2021/10/25 08:53:20;;;;;;;32.80;21.67;;;;;;;10.46;100.00;101813.50;5021331;28;20031;-75
2021/10/25 08:55:50;;;;;;;34.97;21.98;;;;;;;10.48;100.00;101816.19;5009890;28;20371;-76
2021/10/25 08:58:15;;;;;;;36.08;22.75;;;;;;;10.48;100.00;101826.69;5011933;28;20385;-77
2021/10/25 09:00:50;;;;;;;33.30;21.98;;;;;;;10.49;100.00;101814.47;5012273;28;20109;-76
2021/10/25 09:03:17;;;;;;;39.35;25.55;;;;;;;10.52;100.00;101815.44;5020864;28;20399;-77
2021/10/25 09:05:58;;;;;;;40.45;24.98;;;;;;;10.53;100.00;101818.97;5013193;28;20026;-76
2021/10/25 09:08:24;;;;;;;45.85;26.60;;;;;;;10.49;100.00;101824.97;5019040;28;20075;-75
2021/10/25 09:10:50;;;;;;;38.63;24.80;;;;;;;10.56;100.00;101816.44;5012101;28;20057;-77
2021/10/25 09:13:21;;;;;;;41.53;26.02;;;;;;;10.59;100.00;101819.16;5012764;28;20033;-76
2021/10/25 09:15:52;;;;;;;43.90;26.60;;;;;;;10.60;100.00;101820.94;5020099;28;20030;-77
2021/10/25 09:18:21;;;;;;;48.10;26.85;;;;;;;10.62;100.00;101817.53;5019551;28;20415;-77
2021/10/25 09:21:09;;;;;;;48.40;27.50;;;;;;;10.68;100.00;101824.72;5016888;28;20038;-77
2021/10/25 09:23:43;;;;;;;47.50;27.60;;;;;;;10.71;100.00;101821.28;5017564;28;20423;-78
2021/10/25 09:26:16;;;;;;;47.10;28.05;;;;;;;10.65;100.00;101815.81;5018608;28;20466;-77
2021/10/25 09:28:52;;;;;;;54.50;31.60;;;;;;;10.60;100.00;101805.16;5016850;28;20025;-77
2021/10/25 09:31:34;;;;;;;52.50;30.23;;;;;;;10.67;100.00;101809.75;5013717;28;20422;-77
2021/10/25 09:34:11;;;;;;;64.47;34.00;;;;;;;10.69;100.00;101809.81;5020203;28;20028;-78
2021/10/25 09:36:39;;;;;;;58.33;31.13;;;;;;;10.70;100.00;101822.13;5012596;28;20052;-77
2021/10/25 09:39:12;;;;;;;55.80;32.03;;;;;;;10.70;100.00;101812.50;5016531;28;20025;-78
2021/10/25 09:49:56;;;;;;;62.67;34.30;;;;;;;10.80;100.00;101816.31;5016924;28;20088;-77
2021/10/25 09:52:36;;;;;;;62.60;34.63;;;;;;;10.82;100.00;101816.38;5018153;28;20045;-77
2021/10/25 09:55:22;;;;;;;58.80;32.17;;;;;;;10.82;100.00;101813.72;5011406;28;20022;-77
2021/10/25 10:00:15;;;;;;;58.40;32.33;;;;;;;10.87;100.00;101809.50;5019842;28;20102;-77
2021/10/25 10:02:43;;;;;;;60.50;32.90;;;;;;;10.90;100.00;101810.47;5008676;28;20465;-76
2021/10/25 10:05:11;;;;;;;53.58;32.10;;;;;;;11.01;100.00;101813.44;5017749;28;20461;-78
2021/10/25 10:07:37;;;;;;;54.95;32.25;;;;;;;11.04;100.00;101797.75;5018227;28;20057;-77
2021/10/25 10:10:06;;;;;;;54.55;31.70;;;;;;;11.01;100.00;101797.63;5014931;28;20030;-77
2021/10/25 10:12:31;;;;;;;58.45;31.70;;;;;;;11.04;100.00;101800.38;5028390;28;20022;-76
2021/10/25 10:14:59;;;;;;;51.88;31.38;;;;;;;11.09;100.00;101806.66;5014401;28;20037;-76
2021/10/25 10:17:35;;;;;;;53.67;31.60;;;;;;;11.06;100.00;101816.22;5011071;28;20482;-77
2021/10/25 10:20:14;;;;;;;49.47;30.70;;;;;;;11.02;100.00;101812.59;5016345;28;20056;-76
2021/10/25 10:22:45;;;;;;;49.13;31.92;;;;;;;10.94;100.00;101811.47;5008591;28;20030;-76
2021/10/25 10:25:11;;;;;;;48.35;31.38;;;;;;;11.03;100.00;101816.13;5013605;28;20030;-76
2021/10/25 10:27:37;;;;;;;56.47;31.05;;;;;;;11.01;100.00;101815.19;5011451;28;20046;-77
2021/10/25 10:30:09;;;;;;;51.03;31.40;;;;;;;11.03;100.00;101819.66;5018203;28;20040;-75
2021/10/25 10:32:34;;;;;;;47.70;30.25;;;;;;;11.06;100.00;101813.59;5004003;28;20379;-76
2021/10/25 10:35:07;;;;;;;48.60;29.33;;;;;;;11.10;100.00;101795.28;5009682;28;20025;-77
2021/10/25 10:37:41;;;;;;;47.35;27.77;;;;;;;11.13;100.00;101792.72;5016475;28;20030;-76
2021/10/25 10:40:12;;;;;;;47.97;28.40;;;;;;;11.16;100.00;101793.69;5014408;28;20041;-76
2021/10/25 10:42:42;;;;;;;45.65;27.30;;;;;;;11.17;100.00;101800.75;5011004;28;20038;-76
2021/10/25 10:45:09;;;;;;;42.38;27.38;;;;;;;11.18;100.00;101799.88;5014282;28;20030;-75
2021/10/25 10:47:42;;;;;;;51.70;28.75;;;;;;;11.20;100.00;101798.19;5018252;28;20022;-75
2021/10/25 10:50:56;;;;;;;48.13;26.98;;;;;;;11.25;100.00;101807.13;5018170;28;20088;-77
2021/10/25 10:53:28;;;;;;;49.67;26.88;;;;;;;11.29;100.00;101799.34;5015607;28;20169;-74
2021/10/25 10:55:59;;;;;;;47.90;28.27;;;;;;;11.30;100.00;101800.25;5007064;28;20033;-76
2021/10/25 10:58:41;;;;;;;50.70;28.33;;;;;;;11.35;100.00;101798.63;5009937;28;20102;-77
2021/10/25 11:01:08;;;;;;;51.70;29.45;;;;;;;11.37;100.00;101802.22;5007427;28;20037;-76
2021/10/25 11:03:35;;;;;;;48.50;28.60;;;;;;;11.39;100.00;101794.34;5010555;28;20392;-76
2021/10/25 11:06:11;;;;;;;50.20;29.67;;;;;;;11.44;100.00;101800.66;5013014;28;20026;-76
2021/10/25 11:08:38;;;;;;;47.28;27.98;;;;;;;11.49;100.00;101801.69;5011869;28;20042;-76
2021/10/25 11:11:05;;;;;;;52.10;29.48;;;;;;;11.53;100.00;101797.38;5012995;28;20072;-75
2021/10/25 11:13:35;;;;;;;57.65;31.55;;;;;;;11.53;100.00;101798.28;5012986;28;20141;-76
2021/10/25 11:16:12;;;;;;;56.78;29.15;;;;;;;11.55;100.00;101795.69;4996827;28;20034;-75
2021/10/25 11:18:41;;;;;;;50.80;29.23;;;;;;;11.54;100.00;101804.44;5013285;28;20028;-75
2021/10/25 11:21:28;;;;;;;48.28;29.27;;;;;;;11.62;100.00;101802.91;5013726;28;20080;-75
2021/10/25 11:23:57;;;;;;;46.97;27.75;;;;;;;11.62;100.00;101805.53;5011196;28;20037;-76
2021/10/25 11:26:42;;;;;;;54.53;30.02;;;;;;;11.68;100.00;101807.44;5015350;28;20046;-76
2021/10/25 11:29:13;;;;;;;52.53;28.58;;;;;;;11.62;100.00;101802.91;5015168;28;20018;-75
2021/10/25 11:31:51;;;;;;;50.92;28.33;;;;;;;11.67;100.00;101806.56;5013814;28;20160;-75
2021/10/25 11:34:21;;;;;;;47.05;27.75;;;;;;;11.59;100.00;101816.00;5020503;28;20230;-76
2021/10/25 11:37:04;;;;;;;52.17;29.00;;;;;;;11.54;100.00;101810.59;5017434;28;20185;-75
2021/10/25 11:39:44;;;;;;;49.45;27.80;;;;;;;11.59;100.00;101813.38;5012252;28;20080;-76
2021/10/25 11:42:13;;;;;;;51.22;26.60;;;;;;;11.58;100.00;101803.66;5010808;28;20416;-76
2021/10/25 11:44:40;;;;;;;45.55;24.98;;;;;;;11.57;100.00;101804.50;5015627;28;20030;-77
2021/10/25 11:47:19;;;;;;;49.20;27.25;;;;;;;11.59;100.00;101797.56;5018627;28;20057;-77
2021/10/25 11:49:46;;;;;;;44.13;25.17;;;;;;;11.53;100.00;101790.38;5019763;28;20029;-76
2021/10/25 11:52:11;;;;;;;41.45;24.58;;;;;;;11.55;100.00;101787.78;5018166;28;20036;-77
2021/10/25 11:54:48;;;;;;;44.17;25.67;;;;;;;11.52;100.00;101782.44;5019748;28;20029;-76
2021/10/25 11:57:14;;;;;;;43.58;26.15;;;;;;;11.54;100.00;101783.34;5010964;28;20048;-77
2021/10/25 11:59:39;;;;;;;45.42;25.42;;;;;;;11.53;100.00;101781.56;5017751;28;20030;-77
2021/10/25 12:02:12;;;;;;;44.15;25.92;;;;;;;11.57;100.00;101783.41;5013218;28;20478;-76
2021/10/25 12:04:45;;;;;;;53.40;28.83;;;;;;;11.58;100.00;101780.81;5018932;28;20034;-77
2021/10/25 12:07:12;;;;;;;53.10;28.15;;;;;;;11.63;100.00;101781.84;5018414;28;20036;-77
2021/10/25 12:09:37;;;;;;;53.35;29.38;;;;;;;11.70;100.00;101789.94;5016929;28;20080;-78
2021/10/25 12:12:07;;;;;;;54.55;30.40;;;;;;;11.68;100.00;101779.34;5012632;28;20151;-76
2021/10/25 12:14:36;;;;;;;58.28;30.17;;;;;;;11.69;100.00;101775.84;5019291;28;20108;-75
2021/10/25 12:17:02;;;;;;;54.55;30.15;;;;;;;11.62;100.00;101779.19;5019796;28;20021;-78
2021/10/25 12:19:28;;;;;;;59.38;31.38;;;;;;;11.56;100.00;101776.38;5020547;28;20457;-77
2021/10/25 12:21:54;;;;;;;56.40;30.35;;;;;;;11.64;100.00;101780.13;5017283;28;20486;-77
2021/10/25 12:24:21;;;;;;;56.35;31.20;;;;;;;11.61;100.00;101774.75;5014723;28;20033;-78
2021/10/25 12:27:01;;;;;;;58.97;31.58;;;;;;;11.57;100.00;101773.78;5014719;28;20513;-78
2021/10/25 12:29:27;;;;;;;55.63;30.45;;;;;;;11.62;100.00;101768.63;5015990;28;20033;-76
2021/10/25 12:31:53;;;;;;;51.60;28.30;;;;;;;11.67;100.00;101777.56;5014723;28;20026;-76
2021/10/25 12:34:19;;;;;;;50.00;28.80;;;;;;;11.66;100.00;101767.84;5016472;28;20036;-77
2021/10/25 12:36:45;;;;;;;49.00;29.55;;;;;;;11.66;100.00;101770.50;5009732;28;20097;-76
2021/10/25 12:39:16;;;;;;;51.25;30.17;;;;;;;11.68;100.00;101775.81;5012978;28;20030;-77
2021/10/25 12:41:58;;;;;;;45.55;28.63;;;;;;;11.64;100.00;101769.59;5016808;28;20112;-77
2021/10/25 12:44:31;;;;;;;49.78;28.23;;;;;;;11.69;100.00;101773.22;5016408;28;20116;-77
2021/10/25 12:47:12;;;;;;;48.58;28.00;;;;;;;11.72;100.00;101773.31;5016006;28;20037;-76